Epsom, NH (03234)

1:09 AM EST on February 23, 2017 (GMT -0500)
Leighton Brook | | Change Station

Elev 522 ft 43.21 °N, 71.35 °W | Updated 2 seconds ago

Overcast
Overcast
32.4 °F
Feels Like 32 °F
N
0.0
Wind Variable Wind from WSW
Gusts 0.0 mph

Today
High -- | Low -- °F
--% Chance of Precip.
Yesterday
High -- | Low -- °F
Precip. -- in
Pressure 29.88 in
Visibility 10.0 miles
Clouds Overcast 8000 ft
Windchill 32 °F
Dew Point 28 °F
Humidity 85%
Rainfall 0.00 in
Snow Depth Not available.
6:30 AM 5:27 PM
Waning Crescent, 12% visible
METAR KCON 230551Z AUTO 00000KT 10SM OVC080 01/M02 A2987 RMK AO2 SLP118 T00061017 10078 21006 55004
Pressure 29.88 in
Visibility 10.0 miles
Clouds Overcast 8000 ft
Windchill 32 °F
Dew Point 28 °F
Humidity 85%
Rainfall 0.00 in
Snow Depth Not available.
6:30 AM 5:27 PM
Waning Crescent, 12% visible
METAR KCON 230551Z AUTO 00000KT 10SM OVC080 01/M02 A2987 RMK AO2 SLP118 T00061017 10078 21006 55004

Get Your Daily Forecast Email!

Thanks for signing up!

Be on the lookout for a verification email in your inbox.

You'll start receiving the daily forecast at 8 AM.

×

10-Day Weather Forecast

Almanac

Astronomy

Feb. 23, 2017 Rise Set
Actual Time
Civil Twilight
Nautical Twilight
Astronomical Twilight
Moon
Length of Visible Light
Length of Day
Tomorrow will be .
, % of the Moon is Illuminated

Today's Extremes

State Highs State Lows

Community

WunderPhotos

Upload Photos

1,962,540 photos uploaded!

WunderBlog® & News

Nearby

Air Quality

  Air Quality AQ Index Pollutant
Not available.

Snow Depth

Station Depth Elevation

Earthquake Activity

City Distance Mag. Time & Date
Minimum magnitude displayed is 2.5.

Coastal Water Temperatures

Place Temperature

Stations

Nearby Weather Stations

Station Location Temp. Windchill Dew Point Humidity Wind Precip. Elev Updated Type
                   

Watches & Warnings

There are currently no watches in effect.